sensor_id;sensor_type;location;lat;lon;timestamp;P1;durP1;ratioP1;P2;durP2;ratioP2
19828;SDS011;10075;50.924;4.396;2023-01-01T00:01:28;6.30;;;2.70;;
19828;SDS011;10075;50.924;4.396;2023-01-01T00:03:57;9.65;;;2.70;;
19828;SDS011;10075;50.924;4.396;2023-01-01T00:06:25;10.35;;;3.92;;
19828;SDS011;10075;50.924;4.396;2023-01-01T00:08:52;9.50;;;3.15;;
19828;SDS011;10075;50.924;4.396;2023-01-01T00:11:33;9.45;;;3.17;;
19828;SDS011;10075;50.924;4.396;2023-01-01T00:14:01;10.00;;;3.25;;
19828;SDS011;10075;50.924;4.396;2023-01-01T00:16:28;8.23;;;2.88;;
19828;SDS011;10075;50.924;4.396;2023-01-01T00:18:55;10.65;;;3.40;;
19828;SDS011;10075;50.924;4.396;2023-01-01T00:21:22;14.05;;;3.05;;
19828;SDS011;10075;50.924;4.396;2023-01-01T00:23:49;6.18;;;2.97;;
19828;SDS011;10075;50.924;4.396;2023-01-01T00:26:16;7.85;;;2.67;;
19828;SDS011;10075;50.924;4.396;2023-01-01T00:28:44;9.18;;;2.67;;
19828;SDS011;10075;50.924;4.396;2023-01-01T00:31:13;8.73;;;2.15;;
19828;SDS011;10075;50.924;4.396;2023-01-01T00:33:42;7.97;;;2.42;;
19828;SDS011;10075;50.924;4.396;2023-01-01T00:36:11;7.85;;;2.50;;
19828;SDS011;10075;50.924;4.396;2023-01-01T00:38:40;10.25;;;2.42;;
19828;SDS011;10075;50.924;4.396;2023-01-01T00:41:07;11.05;;;2.65;;
19828;SDS011;10075;50.924;4.396;2023-01-01T00:43:35;9.60;;;2.13;;
19828;SDS011;10075;50.924;4.396;2023-01-01T00:46:02;9.18;;;2.22;;
19828;SDS011;10075;50.924;4.396;2023-01-01T00:48:32;7.10;;;2.70;;
19828;SDS011;10075;50.924;4.396;2023-01-01T00:51:00;7.70;;;2.17;;
19828;SDS011;10075;50.924;4.396;2023-01-01T00:53:27;7.50;;;2.50;;
19828;SDS011;10075;50.924;4.396;2023-01-01T00:55:54;7.88;;;2.53;;
19828;SDS011;10075;50.924;4.396;2023-01-01T00:58:22;8.68;;;2.58;;
19828;SDS011;10075;50.924;4.396;2023-01-01T01:00:51;8.10;;;2.50;;
19828;SDS011;10075;50.924;4.396;2023-01-01T01:03:20;7.93;;;2.25;;
19828;SDS011;10075;50.924;4.396;2023-01-01T01:05:54;7.13;;;2.20;;
19828;SDS011;10075;50.924;4.396;2023-01-01T01:08:22;5.38;;;2.30;;
19828;SDS011;10075;50.924;4.396;2023-01-01T01:10:50;8.38;;;2.35;;
19828;SDS011;10075;50.924;4.396;2023-01-01T01:13:17;9.32;;;2.65;;
19828;SDS011;10075;50.924;4.396;2023-01-01T01:15:44;8.15;;;2.20;;
19828;SDS011;10075;50.924;4.396;2023-01-01T01:18:11;8.85;;;2.13;;
19828;SDS011;10075;50.924;4.396;2023-01-01T01:20:38;8.55;;;2.85;;
19828;SDS011;10075;50.924;4.396;2023-01-01T01:23:07;7.93;;;2.30;;
19828;SDS011;10075;50.924;4.396;2023-01-01T01:25:34;7.25;;;2.50;;
19828;SDS011;10075;50.924;4.396;2023-01-01T01:28:01;8.30;;;2.35;;
19828;SDS011;10075;50.924;4.396;2023-01-01T01:30:28;8.27;;;1.92;;
19828;SDS011;10075;50.924;4.396;2023-01-01T01:32:55;7.20;;;2.10;;
19828;SDS011;10075;50.924;4.396;2023-01-01T01:35:22;6.13;;;2.10;;
19828;SDS011;10075;50.924;4.396;2023-01-01T01:37:49;10.95;;;2.30;;
19828;SDS011;10075;50.924;4.396;2023-01-01T01:40:17;7.35;;;1.77;;
19828;SDS011;10075;50.924;4.396;2023-01-01T01:42:45;5.68;;;2.08;;
19828;SDS011;10075;50.924;4.396;2023-01-01T01:45:13;9.95;;;2.30;;
19828;SDS011;10075;50.924;4.396;2023-01-01T01:47:43;6.60;;;1.90;;
19828;SDS011;10075;50.924;4.396;2023-01-01T01:50:15;10.77;;;2.40;;
19828;SDS011;10075;50.924;4.396;2023-01-01T01:52:49;12.18;;;2.22;;
19828;SDS011;10075;50.924;4.396;2023-01-01T01:55:27;7.72;;;1.90;;
19828;SDS011;10075;50.924;4.396;2023-01-01T01:57:57;11.95;;;2.42;;
19828;SDS011;10075;50.924;4.396;2023-01-01T02:00:24;8.23;;;2.08;;
19828;SDS011;10075;50.924;4.396;2023-01-01T02:02:52;9.27;;;2.03;;
19828;SDS011;10075;50.924;4.396;2023-01-01T02:05:21;11.90;;;2.50;;
19828;SDS011;10075;50.924;4.396;2023-01-01T02:07:50;13.23;;;2.67;;
19828;SDS011;10075;50.924;4.396;2023-01-01T02:10:19;11.70;;;2.53;;
19828;SDS011;10075;50.924;4.396;2023-01-01T02:12:47;6.57;;;2.40;;
19828;SDS011;10075;50.924;4.396;2023-01-01T02:15:15;7.63;;;1.98;;
19828;SDS011;10075;50.924;4.396;2023-01-01T02:17:44;8.40;;;1.90;;
19828;SDS011;10075;50.924;4.396;2023-01-01T02:20:20;7.60;;;2.10;;
19828;SDS011;10075;50.924;4.396;2023-01-01T02:23:06;8.05;;;1.92;;
19828;SDS011;10075;50.924;4.396;2023-01-01T02:25:48;9.85;;;2.33;;
19828;SDS011;10075;50.924;4.396;2023-01-01T02:28:34;6.93;;;1.70;;
19828;SDS011;10075;50.924;4.396;2023-01-01T02:31:09;7.32;;;2.30;;
19828;SDS011;10075;50.924;4.396;2023-01-01T02:33:41;7.80;;;2.05;;
19828;SDS011;10075;50.924;4.396;2023-01-01T02:36:10;7.72;;;1.98;;
19828;SDS011;10075;50.924;4.396;2023-01-01T02:38:39;6.47;;;1.40;;
19828;SDS011;10075;50.924;4.396;2023-01-01T02:41:10;4.53;;;1.80;;
19828;SDS011;10075;50.924;4.396;2023-01-01T02:43:40;9.45;;;2.30;;
19828;SDS011;10075;50.924;4.396;2023-01-01T02:46:08;9.88;;;2.13;;
19828;SDS011;10075;50.924;4.396;2023-01-01T02:48:38;5.47;;;1.88;;
19828;SDS011;10075;50.924;4.396;2023-01-01T02:51:12;5.97;;;2.13;;
19828;SDS011;10075;50.924;4.396;2023-01-01T02:53:51;8.38;;;2.05;;
19828;SDS011;10075;50.924;4.396;2023-01-01T02:56:26;6.15;;;1.98;;
19828;SDS011;10075;50.924;4.396;2023-01-01T02:59:05;8.93;;;2.08;;
19828;SDS011;10075;50.924;4.396;2023-01-01T03:02:09;6.63;;;2.08;;
19828;SDS011;10075;50.924;4.396;2023-01-01T03:04:48;5.03;;;2.10;;
19828;SDS011;10075;50.924;4.396;2023-01-01T03:07:25;9.30;;;2.40;;
19828;SDS011;10075;50.924;4.396;2023-01-01T03:10:02;11.68;;;2.05;;
19828;SDS011;10075;50.924;4.396;2023-01-01T03:12:33;6.03;;;1.67;;
19828;SDS011;10075;50.924;4.396;2023-01-01T03:15:11;8.27;;;1.92;;
19828;SDS011;10075;50.924;4.396;2023-01-01T03:17:46;5.20;;;2.03;;
19828;SDS011;10075;50.924;4.396;2023-01-01T03:20:20;7.00;;;2.17;;
19828;SDS011;10075;50.924;4.396;2023-01-01T03:22:53;6.70;;;1.73;;
19828;SDS011;10075;50.924;4.396;2023-01-01T03:25:24;8.23;;;2.42;;
19828;SDS011;10075;50.924;4.396;2023-01-01T03:27:56;7.78;;;1.80;;
19828;SDS011;10075;50.924;4.396;2023-01-01T03:30:30;5.38;;;1.98;;
19828;SDS011;10075;50.924;4.396;2023-01-01T03:32:59;8.73;;;2.13;;
19828;SDS011;10075;50.924;4.396;2023-01-01T03:35:31;8.65;;;2.75;;
19828;SDS011;10075;50.924;4.396;2023-01-01T03:38:05;7.65;;;2.00;;
19828;SDS011;10075;50.924;4.396;2023-01-01T03:40:36;8.98;;;2.13;;
19828;SDS011;10075;50.924;4.396;2023-01-01T03:43:05;9.60;;;2.28;;
19828;SDS011;10075;50.924;4.396;2023-01-01T03:45:40;10.18;;;1.92;;
19828;SDS011;10075;50.924;4.396;2023-01-01T03:48:10;11.48;;;2.33;;
19828;SDS011;10075;50.924;4.396;2023-01-01T03:50:40;8.15;;;2.08;;
19828;SDS011;10075;50.924;4.396;2023-01-01T03:53:16;5.95;;;1.60;;
19828;SDS011;10075;50.924;4.396;2023-01-01T03:55:54;5.65;;;1.85;;
19828;SDS011;10075;50.924;4.396;2023-01-01T03:58:31;7.88;;;2.45;;
19828;SDS011;10075;50.924;4.396;2023-01-01T04:01:03;4.47;;;2.20;;
19828;SDS011;10075;50.924;4.396;2023-01-01T04:03:37;5.13;;;2.00;;
19828;SDS011;10075;50.924;4.396;2023-01-01T04:06:05;6.43;;;2.28;;
19828;SDS011;10075;50.924;4.396;2023-01-01T04:08:34;6.13;;;1.88;;
19828;SDS011;10075;50.924;4.396;2023-01-01T04:11:02;7.07;;;2.20;;
19828;SDS011;10075;50.924;4.396;2023-01-01T04:13:53;7.05;;;1.88;;
19828;SDS011;10075;50.924;4.396;2023-01-01T04:16:21;5.63;;;2.33;;
19828;SDS011;10075;50.924;4.396;2023-01-01T04:18:48;6.13;;;2.13;;
19828;SDS011;10075;50.924;4.396;2023-01-01T04:21:15;5.57;;;2.15;;
19828;SDS011;10075;50.924;4.396;2023-01-01T04:23:42;6.30;;;1.98;;
19828;SDS011;10075;50.924;4.396;2023-01-01T04:26:11;12.10;;;2.53;;
19828;SDS011;10075;50.924;4.396;2023-01-01T04:28:39;6.45;;;2.25;;
19828;SDS011;10075;50.924;4.396;2023-01-01T04:31:06;5.38;;;2.33;;
19828;SDS011;10075;50.924;4.396;2023-01-01T04:33:35;8.25;;;2.17;;
19828;SDS011;10075;50.924;4.396;2023-01-01T04:36:03;6.40;;;1.92;;
19828;SDS011;10075;50.924;4.396;2023-01-01T04:38:32;5.90;;;2.10;;
19828;SDS011;10075;50.924;4.396;2023-01-01T04:41:00;9.68;;;1.92;;
19828;SDS011;10075;50.924;4.396;2023-01-01T04:43:28;6.88;;;2.17;;
19828;SDS011;10075;50.924;4.396;2023-01-01T04:45:56;7.07;;;2.13;;
19828;SDS011;10075;50.924;4.396;2023-01-01T04:48:23;7.43;;;1.92;;
19828;SDS011;10075;50.924;4.396;2023-01-01T04:50:56;8.20;;;2.05;;
19828;SDS011;10075;50.924;4.396;2023-01-01T04:53:25;6.75;;;1.80;;
19828;SDS011;10075;50.924;4.396;2023-01-01T04:55:54;7.80;;;2.22;;
19828;SDS011;10075;50.924;4.396;2023-01-01T04:58:22;6.57;;;2.05;;
19828;SDS011;10075;50.924;4.396;2023-01-01T05:00:49;9.02;;;2.63;;
19828;SDS011;10075;50.924;4.396;2023-01-01T05:03:17;6.80;;;1.92;;
19828;SDS011;10075;50.924;4.396;2023-01-01T05:05:44;5.32;;;1.77;;
19828;SDS011;10075;50.924;4.396;2023-01-01T05:08:13;9.50;;;2.30;;
19828;SDS011;10075;50.924;4.396;2023-01-01T05:10:40;9.02;;;2.78;;
19828;SDS011;10075;50.924;4.396;2023-01-01T05:13:07;6.90;;;2.10;;
19828;SDS011;10075;50.924;4.396;2023-01-01T05:15:35;7.93;;;2.53;;
19828;SDS011;10075;50.924;4.396;2023-01-01T05:18:02;9.15;;;2.03;;
19828;SDS011;10075;50.924;4.396;2023-01-01T05:20:29;7.90;;;2.40;;
19828;SDS011;10075;50.924;4.396;2023-01-01T05:22:56;12.10;;;2.72;;
19828;SDS011;10075;50.924;4.396;2023-01-01T05:25:25;11.02;;;2.47;;
19828;SDS011;10075;50.924;4.396;2023-01-01T05:27:52;11.15;;;2.15;;
19828;SDS011;10075;50.924;4.396;2023-01-01T05:30:19;8.45;;;2.30;;
19828;SDS011;10075;50.924;4.396;2023-01-01T05:32:47;9.73;;;2.20;;
19828;SDS011;10075;50.924;4.396;2023-01-01T05:35:14;11.18;;;3.10;;
19828;SDS011;10075;50.924;4.396;2023-01-01T05:37:41;10.63;;;2.40;;
19828;SDS011;10075;50.924;4.396;2023-01-01T05:40:08;13.20;;;2.40;;
19828;SDS011;10075;50.924;4.396;2023-01-01T05:42:38;6.53;;;2.53;;
19828;SDS011;10075;50.924;4.396;2023-01-01T05:45:05;9.43;;;2.70;;
19828;SDS011;10075;50.924;4.396;2023-01-01T05:47:33;5.55;;;2.03;;
19828;SDS011;10075;50.924;4.396;2023-01-01T05:50:00;10.17;;;2.37;;
19828;SDS011;10075;50.924;4.396;2023-01-01T05:52:27;8.75;;;2.40;;
19828;SDS011;10075;50.924;4.396;2023-01-01T05:54:54;7.15;;;2.15;;
19828;SDS011;10075;50.924;4.396;2023-01-01T05:57:22;7.22;;;2.33;;
19828;SDS011;10075;50.924;4.396;2023-01-01T05:59:51;7.82;;;2.38;;
19828;SDS011;10075;50.924;4.396;2023-01-01T06:02:18;8.80;;;2.35;;
19828;SDS011;10075;50.924;4.396;2023-01-01T06:04:45;8.10;;;2.38;;
19828;SDS011;10075;50.924;4.396;2023-01-01T06:07:12;16.98;;;2.97;;
19828;SDS011;10075;50.924;4.396;2023-01-01T06:09:39;8.82;;;2.35;;
19828;SDS011;10075;50.924;4.396;2023-01-01T06:12:06;5.25;;;2.45;;
19828;SDS011;10075;50.924;4.396;2023-01-01T06:14:33;5.10;;;2.33;;
19828;SDS011;10075;50.924;4.396;2023-01-01T06:17:02;13.15;;;2.33;;
19828;SDS011;10075;50.924;4.396;2023-01-01T06:19:29;10.30;;;2.40;;
19828;SDS011;10075;50.924;4.396;2023-01-01T06:21:56;7.80;;;2.30;;
19828;SDS011;10075;50.924;4.396;2023-01-01T06:24:23;10.00;;;2.63;;
19828;SDS011;10075;50.924;4.396;2023-01-01T06:26:50;7.28;;;2.65;;
19828;SDS011;10075;50.924;4.396;2023-01-01T06:29:17;10.70;;;2.35;;
19828;SDS011;10075;50.924;4.396;2023-01-01T06:31:44;13.55;;;3.00;;
19828;SDS011;10075;50.924;4.396;2023-01-01T06:34:12;10.80;;;2.40;;
19828;SDS011;10075;50.924;4.396;2023-01-01T06:36:39;6.80;;;2.53;;
19828;SDS011;10075;50.924;4.396;2023-01-01T06:39:06;7.05;;;2.25;;
19828;SDS011;10075;50.924;4.396;2023-01-01T06:41:33;6.70;;;2.65;;
19828;SDS011;10075;50.924;4.396;2023-01-01T06:44:01;10.63;;;2.45;;
19828;SDS011;10075;50.924;4.396;2023-01-01T06:46:30;11.43;;;2.67;;
19828;SDS011;10075;50.924;4.396;2023-01-01T06:48:58;10.60;;;2.80;;
19828;SDS011;10075;50.924;4.396;2023-01-01T06:51:30;7.38;;;2.50;;
19828;SDS011;10075;50.924;4.396;2023-01-01T06:53:58;8.73;;;2.60;;
19828;SDS011;10075;50.924;4.396;2023-01-01T06:56:26;13.73;;;3.25;;
19828;SDS011;10075;50.924;4.396;2023-01-01T06:58:54;9.30;;;2.80;;
19828;SDS011;10075;50.924;4.396;2023-01-01T07:01:22;8.23;;;2.30;;
19828;SDS011;10075;50.924;4.396;2023-01-01T07:03:50;9.38;;;2.78;;
19828;SDS011;10075;50.924;4.396;2023-01-01T07:06:18;7.60;;;2.72;;
19828;SDS011;10075;50.924;4.396;2023-01-01T07:08:48;9.68;;;2.80;;
19828;SDS011;10075;50.924;4.396;2023-01-01T07:11:15;12.07;;;3.13;;
19828;SDS011;10075;50.924;4.396;2023-01-01T07:13:42;6.85;;;2.22;;
19828;SDS011;10075;50.924;4.396;2023-01-01T07:16:10;15.07;;;2.75;;
19828;SDS011;10075;50.924;4.396;2023-01-01T07:18:37;16.13;;;3.57;;
19828;SDS011;10075;50.924;4.396;2023-01-01T07:21:04;12.80;;;3.97;;
19828;SDS011;10075;50.924;4.396;2023-01-01T07:23:33;8.98;;;2.75;;
19828;SDS011;10075;50.924;4.396;2023-01-01T07:26:02;8.38;;;3.13;;
19828;SDS011;10075;50.924;4.396;2023-01-01T07:28:29;10.98;;;3.22;;
19828;SDS011;10075;50.924;4.396;2023-01-01T07:30:56;10.93;;;2.90;;
19828;SDS011;10075;50.924;4.396;2023-01-01T07:33:23;11.57;;;3.22;;
19828;SDS011;10075;50.924;4.396;2023-01-01T07:35:50;10.05;;;2.92;;
19828;SDS011;10075;50.924;4.396;2023-01-01T07:38:17;9.10;;;3.00;;
19828;SDS011;10075;50.924;4.396;2023-01-01T07:40:44;8.50;;;2.77;;
19828;SDS011;10075;50.924;4.396;2023-01-01T07:43:12;10.43;;;3.08;;
19828;SDS011;10075;50.924;4.396;2023-01-01T07:45:39;10.25;;;3.03;;
19828;SDS011;10075;50.924;4.396;2023-01-01T07:48:07;12.18;;;3.33;;
19828;SDS011;10075;50.924;4.396;2023-01-01T07:50:38;11.27;;;3.20;;
19828;SDS011;10075;50.924;4.396;2023-01-01T07:53:05;15.93;;;3.23;;
19828;SDS011;10075;50.924;4.396;2023-01-01T07:55:32;8.13;;;2.93;;
19828;SDS011;10075;50.924;4.396;2023-01-01T07:57:59;7.07;;;2.83;;
19828;SDS011;10075;50.924;4.396;2023-01-01T08:00:28;11.53;;;2.83;;
19828;SDS011;10075;50.924;4.396;2023-01-01T08:02:56;11.80;;;2.60;;
19828;SDS011;10075;50.924;4.396;2023-01-01T08:05:23;8.47;;;2.57;;
19828;SDS011;10075;50.924;4.396;2023-01-01T08:07:50;10.05;;;3.30;;
19828;SDS011;10075;50.924;4.396;2023-01-01T08:10:18;11.13;;;3.38;;
19828;SDS011;10075;50.924;4.396;2023-01-01T08:12:45;10.70;;;3.05;;
19828;SDS011;10075;50.924;4.396;2023-01-01T08:15:13;14.33;;;3.40;;
19828;SDS011;10075;50.924;4.396;2023-01-01T08:17:42;7.57;;;2.58;;
19828;SDS011;10075;50.924;4.396;2023-01-01T08:20:09;11.15;;;3.50;;
19828;SDS011;10075;50.924;4.396;2023-01-01T08:22:36;14.52;;;3.40;;
19828;SDS011;10075;50.924;4.396;2023-01-01T08:25:03;10.27;;;3.40;;
19828;SDS011;10075;50.924;4.396;2023-01-01T08:27:31;13.45;;;3.03;;
19828;SDS011;10075;50.924;4.396;2023-01-01T08:29:58;9.10;;;2.80;;
19828;SDS011;10075;50.924;4.396;2023-01-01T08:32:25;9.63;;;3.57;;
19828;SDS011;10075;50.924;4.396;2023-01-01T08:34:53;10.25;;;2.72;;
19828;SDS011;10075;50.924;4.396;2023-01-01T08:37:20;10.97;;;3.00;;
19828;SDS011;10075;50.924;4.396;2023-01-01T08:39:49;12.07;;;2.80;;
19828;SDS011;10075;50.924;4.396;2023-01-01T08:42:16;9.83;;;2.73;;
19828;SDS011;10075;50.924;4.396;2023-01-01T08:44:43;9.05;;;2.80;;
19828;SDS011;10075;50.924;4.396;2023-01-01T08:47:17;14.43;;;3.30;;
19828;SDS011;10075;50.924;4.396;2023-01-01T08:49:46;11.07;;;2.90;;
19828;SDS011;10075;50.924;4.396;2023-01-01T08:52:15;15.20;;;2.77;;
19828;SDS011;10075;50.924;4.396;2023-01-01T08:54:42;12.02;;;3.47;;
19828;SDS011;10075;50.924;4.396;2023-01-01T08:57:10;9.00;;;2.80;;
19828;SDS011;10075;50.924;4.396;2023-01-01T08:59:37;13.35;;;3.20;;
19828;SDS011;10075;50.924;4.396;2023-01-01T09:02:04;10.00;;;3.03;;
19828;SDS011;10075;50.924;4.396;2023-01-01T09:04:31;11.20;;;2.60;;
19828;SDS011;10075;50.924;4.396;2023-01-01T09:06:58;7.35;;;2.65;;
19828;SDS011;10075;50.924;4.396;2023-01-01T09:09:27;12.02;;;2.78;;
19828;SDS011;10075;50.924;4.396;2023-01-01T09:11:55;10.10;;;3.10;;
19828;SDS011;10075;50.924;4.396;2023-01-01T09:14:23;11.53;;;3.17;;
19828;SDS011;10075;50.924;4.396;2023-01-01T09:16:50;11.80;;;3.00;;
19828;SDS011;10075;50.924;4.396;2023-01-01T09:19:17;11.03;;;2.93;;
19828;SDS011;10075;50.924;4.396;2023-01-01T09:21:44;12.18;;;3.03;;
19828;SDS011;10075;50.924;4.396;2023-01-01T09:24:11;13.02;;;3.35;;
19828;SDS011;10075;50.924;4.396;2023-01-01T09:26:40;9.23;;;3.00;;
19828;SDS011;10075;50.924;4.396;2023-01-01T09:29:07;10.90;;;2.97;;
19828;SDS011;10075;50.924;4.396;2023-01-01T09:31:34;10.38;;;3.30;;
19828;SDS011;10075;50.924;4.396;2023-01-01T09:34:01;9.93;;;2.80;;
19828;SDS011;10075;50.924;4.396;2023-01-01T09:36:29;9.88;;;2.75;;
19828;SDS011;10075;50.924;4.396;2023-01-01T09:38:57;7.32;;;2.92;;
19828;SDS011;10075;50.924;4.396;2023-01-01T09:41:28;9.57;;;2.80;;
19828;SDS011;10075;50.924;4.396;2023-01-01T09:44:12;11.80;;;2.67;;
19828;SDS011;10075;50.924;4.396;2023-01-01T09:47:03;12.50;;;2.90;;
19828;SDS011;10075;50.924;4.396;2023-01-01T09:49:38;9.57;;;2.43;;
19828;SDS011;10075;50.924;4.396;2023-01-01T09:52:08;13.77;;;3.00;;
19828;SDS011;10075;50.924;4.396;2023-01-01T09:54:38;8.93;;;3.33;;
19828;SDS011;10075;50.924;4.396;2023-01-01T09:57:10;8.82;;;2.45;;
19828;SDS011;10075;50.924;4.396;2023-01-01T09:59:40;12.90;;;3.22;;
19828;SDS011;10075;50.924;4.396;2023-01-01T10:02:10;14.37;;;3.00;;
19828;SDS011;10075;50.924;4.396;2023-01-01T10:04:55;9.67;;;2.47;;
19828;SDS011;10075;50.924;4.396;2023-01-01T10:07:31;9.30;;;2.15;;
19828;SDS011;10075;50.924;4.396;2023-01-01T10:10:05;15.40;;;3.03;;
19828;SDS011;10075;50.924;4.396;2023-01-01T10:12:46;8.90;;;2.50;;
19828;SDS011;10075;50.924;4.396;2023-01-01T10:15:22;7.78;;;2.50;;
19828;SDS011;10075;50.924;4.396;2023-01-01T10:17:52;9.30;;;2.40;;
19828;SDS011;10075;50.924;4.396;2023-01-01T10:20:23;14.25;;;2.60;;
19828;SDS011;10075;50.924;4.396;2023-01-01T10:22:55;12.17;;;2.60;;
19828;SDS011;10075;50.924;4.396;2023-01-01T10:25:27;8.27;;;2.73;;
19828;SDS011;10075;50.924;4.396;2023-01-01T10:27:57;9.53;;;2.43;;
19828;SDS011;10075;50.924;4.396;2023-01-01T10:30:27;9.85;;;3.38;;
19828;SDS011;10075;50.924;4.396;2023-01-01T10:32:56;13.57;;;2.53;;
19828;SDS011;10075;50.924;4.396;2023-01-01T10:35:24;9.55;;;2.70;;
19828;SDS011;10075;50.924;4.396;2023-01-01T10:37:56;9.00;;;2.33;;
19828;SDS011;10075;50.924;4.396;2023-01-01T10:40:25;12.85;;;2.75;;
19828;SDS011;10075;50.924;4.396;2023-01-01T10:42:54;10.43;;;2.90;;
19828;SDS011;10075;50.924;4.396;2023-01-01T10:45:29;15.52;;;3.03;;
19828;SDS011;10075;50.924;4.396;2023-01-01T10:48:08;13.32;;;2.40;;
19828;SDS011;10075;50.924;4.396;2023-01-01T10:50:40;11.13;;;2.08;;
19828;SDS011;10075;50.924;4.396;2023-01-01T10:55:57;12.35;;;2.72;;
19828;SDS011;10075;50.924;4.396;2023-01-01T10:58:36;12.40;;;3.10;;
19828;SDS011;10075;50.924;4.396;2023-01-01T11:01:10;11.60;;;3.20;;
19828;SDS011;10075;50.924;4.396;2023-01-01T11:03:54;10.73;;;2.50;;
19828;SDS011;10075;50.924;4.396;2023-01-01T11:06:23;13.07;;;2.92;;
19828;SDS011;10075;50.924;4.396;2023-01-01T11:08:52;9.98;;;2.35;;
19828;SDS011;10075;50.924;4.396;2023-01-01T11:11:24;12.38;;;3.25;;
19828;SDS011;10075;50.924;4.396;2023-01-01T11:13:54;9.77;;;2.88;;
19828;SDS011;10075;50.924;4.396;2023-01-01T11:16:25;8.13;;;2.45;;
19828;SDS011;10075;50.924;4.396;2023-01-01T11:18:59;10.88;;;2.88;;
19828;SDS011;10075;50.924;4.396;2023-01-01T11:21:28;9.23;;;2.75;;
19828;SDS011;10075;50.924;4.396;2023-01-01T11:24:08;11.57;;;2.67;;
19828;SDS011;10075;50.924;4.396;2023-01-01T11:26:46;9.88;;;2.13;;
19828;SDS011;10075;50.924;4.396;2023-01-01T11:29:18;11.13;;;2.83;;
19828;SDS011;10075;50.924;4.396;2023-01-01T11:31:50;8.57;;;2.83;;
19828;SDS011;10075;50.924;4.396;2023-01-01T11:34:24;9.07;;;2.28;;
19828;SDS011;10075;50.924;4.396;2023-01-01T11:37:04;9.35;;;2.58;;
19828;SDS011;10075;50.924;4.396;2023-01-01T11:39:36;9.60;;;2.70;;
19828;SDS011;10075;50.924;4.396;2023-01-01T11:42:07;10.07;;;2.43;;
19828;SDS011;10075;50.924;4.396;2023-01-01T11:44:35;10.10;;;2.47;;
19828;SDS011;10075;50.924;4.396;2023-01-01T11:47:07;15.52;;;2.65;;
19828;SDS011;10075;50.924;4.396;2023-01-01T11:49:51;9.77;;;2.60;;
19828;SDS011;10075;50.924;4.396;2023-01-01T11:52:34;9.95;;;3.08;;
19828;SDS011;10075;50.924;4.396;2023-01-01T11:55:08;11.38;;;3.00;;
19828;SDS011;10075;50.924;4.396;2023-01-01T11:57:45;9.82;;;2.88;;
19828;SDS011;10075;50.924;4.396;2023-01-01T12:00:22;9.07;;;2.38;;
19828;SDS011;10075;50.924;4.396;2023-01-01T12:02:52;14.85;;;2.97;;
19828;SDS011;10075;50.924;4.396;2023-01-01T12:05:23;13.38;;;2.55;;
19828;SDS011;10075;50.924;4.396;2023-01-01T12:07:59;14.88;;;3.25;;
19828;SDS011;10075;50.924;4.396;2023-01-01T12:10:32;13.60;;;2.78;;
19828;SDS011;10075;50.924;4.396;2023-01-01T12:13:10;11.10;;;2.40;;
19828;SDS011;10075;50.924;4.396;2023-01-01T12:15:45;14.25;;;3.28;;
19828;SDS011;10075;50.924;4.396;2023-01-01T12:18:19;14.88;;;2.50;;
19828;SDS011;10075;50.924;4.396;2023-01-01T12:20:51;13.35;;;2.45;;
19828;SDS011;10075;50.924;4.396;2023-01-01T12:23:22;11.18;;;3.08;;
19828;SDS011;10075;50.924;4.396;2023-01-01T12:25:51;14.70;;;2.90;;
19828;SDS011;10075;50.924;4.396;2023-01-01T12:28:28;10.57;;;3.25;;
19828;SDS011;10075;50.924;4.396;2023-01-01T12:31:05;10.18;;;2.30;;
19828;SDS011;10075;50.924;4.396;2023-01-01T12:33:43;12.52;;;2.63;;
19828;SDS011;10075;50.924;4.396;2023-01-01T12:36:23;11.95;;;2.85;;
19828;SDS011;10075;50.924;4.396;2023-01-01T12:39:06;17.80;;;3.40;;
19828;SDS011;10075;50.924;4.396;2023-01-01T12:41:51;11.75;;;2.90;;
19828;SDS011;10075;50.924;4.396;2023-01-01T12:44:27;9.40;;;2.45;;
19828;SDS011;10075;50.924;4.396;2023-01-01T12:47:01;9.90;;;2.65;;
19828;SDS011;10075;50.924;4.396;2023-01-01T12:49:44;8.13;;;2.58;;
19828;SDS011;10075;50.924;4.396;2023-01-01T12:52:22;10.95;;;3.10;;
19828;SDS011;10075;50.924;4.396;2023-01-01T12:55:04;10.73;;;3.03;;
19828;SDS011;10075;50.924;4.396;2023-01-01T12:57:54;9.88;;;2.72;;
19828;SDS011;10075;50.924;4.396;2023-01-01T13:00:26;7.95;;;2.55;;
19828;SDS011;10075;50.924;4.396;2023-01-01T13:02:55;14.27;;;3.20;;
19828;SDS011;10075;50.924;4.396;2023-01-01T13:05:27;14.40;;;3.05;;
19828;SDS011;10075;50.924;4.396;2023-01-01T13:08:00;12.55;;;4.20;;
19828;SDS011;10075;50.924;4.396;2023-01-01T13:10:30;15.35;;;4.95;;
19828;SDS011;10075;50.924;4.396;2023-01-01T13:13:00;15.30;;;3.88;;
19828;SDS011;10075;50.924;4.396;2023-01-01T13:18:19;10.25;;;2.97;;
19828;SDS011;10075;50.924;4.396;2023-01-01T13:20:56;14.82;;;3.42;;
19828;SDS011;10075;50.924;4.396;2023-01-01T13:23:45;13.45;;;3.28;;
19828;SDS011;10075;50.924;4.396;2023-01-01T13:26:33;13.98;;;3.70;;
19828;SDS011;10075;50.924;4.396;2023-01-01T13:32:09;11.02;;;3.72;;
19828;SDS011;10075;50.924;4.396;2023-01-01T13:37:43;15.07;;;5.93;;
19828;SDS011;10075;50.924;4.396;2023-01-01T13:40:28;14.45;;;5.10;;
19828;SDS011;10075;50.924;4.396;2023-01-01T13:43:27;11.98;;;4.13;;
19828;SDS011;10075;50.924;4.396;2023-01-01T13:45:55;13.27;;;4.07;;
19828;SDS011;10075;50.924;4.396;2023-01-01T13:48:37;11.90;;;3.53;;
19828;SDS011;10075;50.924;4.396;2023-01-01T13:51:26;17.95;;;4.60;;
19828;SDS011;10075;50.924;4.396;2023-01-01T13:54:17;17.17;;;4.67;;
19828;SDS011;10075;50.924;4.396;2023-01-01T13:57:26;14.73;;;4.18;;
19828;SDS011;10075;50.924;4.396;2023-01-01T14:00:17;11.32;;;3.85;;
19828;SDS011;10075;50.924;4.396;2023-01-01T14:02:47;14.50;;;5.07;;
19828;SDS011;10075;50.924;4.396;2023-01-01T14:05:23;20.30;;;7.00;;
19828;SDS011;10075;50.924;4.396;2023-01-01T14:07:55;14.20;;;3.47;;
19828;SDS011;10075;50.924;4.396;2023-01-01T14:10:25;10.25;;;3.70;;
19828;SDS011;10075;50.924;4.396;2023-01-01T14:12:55;12.75;;;4.18;;
19828;SDS011;10075;50.924;4.396;2023-01-01T14:15:28;10.77;;;2.70;;
19828;SDS011;10075;50.924;4.396;2023-01-01T14:17:58;17.45;;;7.35;;
19828;SDS011;10075;50.924;4.396;2023-01-01T14:20:29;17.60;;;6.40;;
19828;SDS011;10075;50.924;4.396;2023-01-01T14:23:01;17.92;;;6.82;;
19828;SDS011;10075;50.924;4.396;2023-01-01T14:25:33;13.03;;;4.87;;
19828;SDS011;10075;50.924;4.396;2023-01-01T14:28:00;10.82;;;3.78;;
19828;SDS011;10075;50.924;4.396;2023-01-01T14:30:28;13.73;;;3.40;;
19828;SDS011;10075;50.924;4.396;2023-01-01T14:32:58;13.33;;;3.30;;
19828;SDS011;10075;50.924;4.396;2023-01-01T14:35:27;13.80;;;3.53;;
19828;SDS011;10075;50.924;4.396;2023-01-01T14:37:55;14.83;;;3.57;;
19828;SDS011;10075;50.924;4.396;2023-01-01T14:40:23;11.57;;;3.40;;
19828;SDS011;10075;50.924;4.396;2023-01-01T14:43:00;14.20;;;3.35;;
19828;SDS011;10075;50.924;4.396;2023-01-01T14:45:30;16.10;;;4.63;;
19828;SDS011;10075;50.924;4.396;2023-01-01T14:47:59;10.23;;;3.50;;
19828;SDS011;10075;50.924;4.396;2023-01-01T14:50:27;11.97;;;4.03;;
19828;SDS011;10075;50.924;4.396;2023-01-01T14:52:57;9.57;;;3.80;;
19828;SDS011;10075;50.924;4.396;2023-01-01T14:55:30;12.63;;;3.42;;
19828;SDS011;10075;50.924;4.396;2023-01-01T14:58:01;12.60;;;3.65;;
19828;SDS011;10075;50.924;4.396;2023-01-01T15:00:30;11.07;;;3.65;;
19828;SDS011;10075;50.924;4.396;2023-01-01T15:03:05;11.53;;;3.60;;
19828;SDS011;10075;50.924;4.396;2023-01-01T15:05:38;8.02;;;3.00;;
19828;SDS011;10075;50.924;4.396;2023-01-01T15:08:15;9.23;;;3.17;;
19828;SDS011;10075;50.924;4.396;2023-01-01T15:10:44;10.43;;;3.95;;
19828;SDS011;10075;50.924;4.396;2023-01-01T15:13:15;11.70;;;3.72;;
19828;SDS011;10075;50.924;4.396;2023-01-01T15:15:44;11.82;;;2.95;;